Time;durP1;ratioP1;P1;durP2;ratioP2;P2;SDS_P1;SDS_P2;PMS_P1;PMS_P2;Temp;Humidity;BMP_temperature;BMP_pressure;BME280_temperature;BME280_humidity;BME280_pressure;Samples;Min_cycle;Max_cycle;Signal;HPM_P1;HPM_P2
2022/12/17 13:08:22;;;;;;;76.77;51.83;;;1.00;99.90;;;;;;5027196;28;38825;-77
2022/12/17 13:10:50;;;;;;;77.13;50.37;;;1.00;99.90;;;;;;5026996;28;48397;-77
2022/12/17 13:13:28;;;;;;;81.63;51.27;;;1.10;99.90;;;;;;5016579;28;37177;-78
2022/12/17 13:16:01;;;;;;;76.27;51.23;;;1.00;99.90;;;;;;5027332;28;36867;-78
2022/12/17 13:18:32;;;;;;;70.00;47.83;;;1.00;99.90;;;;;;5022693;28;39530;-78
2022/12/17 13:21:03;;;;;;;75.70;50.40;;;1.00;99.90;;;;;;5018550;28;38417;-77
2022/12/17 13:23:31;;;;;;;77.00;49.97;;;1.00;99.90;;;;;;5022051;28;36964;-77
2022/12/17 13:26:17;;;;;;;81.93;52.87;;;1.00;99.90;;;;;;5022388;28;38313;-77
2022/12/17 13:29:01;;;;;;;75.50;50.70;;;1.00;99.90;;;;;;5024267;28;47895;-77
2022/12/17 13:31:49;;;;;;;78.03;49.70;;;1.00;99.90;;;;;;5024046;28;38603;-78
2022/12/17 13:34:40;;;;;;;86.53;53.27;;;1.00;99.90;;;;;;5018932;28;36956;-76
2022/12/17 13:37:26;;;;;;;79.63;49.47;;;1.00;99.90;;;;;;5023725;28;39651;-77
2022/12/17 13:40:21;;;;;;;76.77;48.97;;;1.00;99.90;;;;;;5021429;28;38913;-76
2022/12/17 13:42:47;;;;;;;75.93;49.67;;;1.00;99.90;;;;;;5015455;28;47096;-77
2022/12/17 13:45:16;;;;;;;74.60;50.37;;;1.10;99.90;;;;;;5024219;28;38658;-77
2022/12/17 13:47:42;;;;;;;78.73;51.70;;;1.10;99.90;;;;;;5024981;28;36480;-77
2022/12/17 13:50:23;;;;;;;79.07;50.10;;;1.10;99.90;;;;;;5023029;28;39188;-77
2022/12/17 13:52:50;;;;;;;78.70;51.07;;;1.10;99.90;;;;;;5027351;28;38734;-77
2022/12/17 13:55:24;;;;;;;77.87;51.23;;;1.10;99.90;;;;;;5025463;28;38058;-77
2022/12/17 13:57:52;;;;;;;79.63;51.90;;;1.10;99.90;;;;;;5026026;28;36899;-75
2022/12/17 14:00:27;;;;;;;81.03;52.27;;;1.10;99.90;;;;;;5023026;28;38824;-76
2022/12/17 14:02:53;;;;;;;77.10;50.87;;;1.10;99.90;;;;;;5018066;28;38804;-76
2022/12/17 14:05:40;;;;;;;83.97;53.67;;;1.00;99.90;;;;;;5019633;28;39875;-75
2022/12/17 14:08:07;;;;;;;75.80;51.27;;;1.00;99.90;;;;;;5023901;28;37437;-76
2022/12/17 14:10:33;;;;;;;87.77;54.33;;;1.00;99.90;;;;;;5023015;28;39806;-74
2022/12/17 14:13:09;;;;;;;85.03;53.83;;;0.90;99.90;;;;;;5022275;28;38022;-78
2022/12/17 14:15:35;;;;;;;83.30;54.53;;;0.90;99.90;;;;;;5022821;28;48624;-76
2022/12/17 14:18:02;;;;;;;82.50;53.20;;;0.90;99.90;;;;;;5030393;28;36128;-75
2022/12/17 14:20:34;;;;;;;90.30;56.93;;;0.80;99.90;;;;;;5025583;28;47888;-78
2022/12/17 14:23:09;;;;;;;92.45;58.35;;;0.80;99.90;;;;;;5015880;28;37271;-75
2022/12/17 14:25:43;;;;;;;90.30;54.17;;;0.80;99.90;;;;;;5028800;28;20498;-74
2022/12/17 14:28:22;;;;;;;90.13;56.53;;;0.70;99.90;;;;;;5013668;28;36350;-76
2022/12/17 14:30:50;;;;;;;89.03;54.83;;;0.60;99.90;;;;;;5017412;28;38726;-75
2022/12/17 14:33:36;;;;;;;92.10;56.10;;;0.60;99.90;;;;;;5020769;28;39090;-76
2022/12/17 14:36:06;;;;;;;96.33;56.13;;;0.60;99.90;;;;;;5014681;28;37067;-77
2022/12/17 14:38:33;;;;;;;91.37;55.83;;;0.50;99.90;;;;;;5012636;28;47476;-75
2022/12/17 14:42:24;;;;;;;91.63;55.00;;;0.40;99.90;;;;;;5010599;28;37643;-76
2022/12/17 14:43:57;;;;;;;88.70;53.60;;;0.40;99.90;;;;;;5014947;28;48154;-76
2022/12/17 14:46:24;;;;;;;94.73;55.63;;;0.40;99.90;;;;;;5013747;28;38071;-75
2022/12/17 14:49:02;;;;;;;92.73;56.43;;;0.40;99.90;;;;;;5020901;28;40538;-76
2022/12/17 14:51:36;;;;;;;92.10;56.27;;;0.30;99.90;;;;;;5019382;28;47185;-76
2022/12/17 14:54:21;;;;;;;95.07;55.40;;;0.20;99.90;;;;;;5026434;28;39653;-76
2022/12/17 14:56:48;;;;;;;96.10;54.70;;;0.10;99.90;;;;;;5032786;28;37650;-75
2022/12/17 14:59:23;;;;;;;99.57;56.10;;;0.00;99.90;;;;;;5016118;28;37408;-75
2022/12/17 15:01:51;;;;;;;101.37;56.37;;;0.00;99.90;;;;;;5016068;28;39620;-77
2022/12/17 15:04:17;;;;;;;102.63;55.90;;;-0.10;99.90;;;;;;5019044;28;38558;-75
2022/12/17 15:06:43;;;;;;;98.97;54.43;;;-0.10;99.90;;;;;;5012548;28;37663;-75
2022/12/17 15:09:11;;;;;;;98.30;56.73;;;-0.20;99.90;;;;;;5014085;28;37570;-76
2022/12/17 15:11:38;;;;;;;97.23;55.17;;;-0.20;99.90;;;;;;5015241;28;37683;-76
2022/12/17 15:14:04;;;;;;;99.20;54.57;;;-0.30;99.90;;;;;;5014603;28;38126;-76
2022/12/17 15:16:30;;;;;;;96.93;54.90;;;-0.30;99.90;;;;;;5020115;28;37616;-77
2022/12/17 15:18:56;;;;;;;105.73;57.13;;;-0.40;99.90;;;;;;5023667;28;36455;-76
2022/12/17 15:21:24;;;;;;;104.63;53.47;;;-0.40;99.90;;;;;;5012382;28;39513;-77
2022/12/17 15:23:51;;;;;;;105.57;55.77;;;-0.50;99.90;;;;;;5011323;28;39341;-77
2022/12/17 15:26:18;;;;;;;105.63;53.63;;;-0.60;99.90;;;;;;5018348;28;37961;-76
2022/12/17 15:28:45;;;;;;;103.97;55.07;;;-0.60;99.90;;;;;;5024972;28;37017;-76
2022/12/17 15:31:12;;;;;;;105.70;53.10;;;-0.70;99.90;;;;;;5019613;28;38101;-76
2022/12/17 15:33:39;;;;;;;109.50;55.90;;;-0.70;99.90;;;;;;5019030;28;36929;-76
2022/12/17 15:36:06;;;;;;;111.13;54.57;;;-0.80;99.90;;;;;;5017749;28;39980;-79
2022/12/17 15:38:32;;;;;;;113.70;55.27;;;-0.80;99.90;;;;;;5011324;28;38297;-77
2022/12/17 15:40:59;;;;;;;109.93;53.80;;;-0.90;99.90;;;;;;5011926;28;38634;-76
2022/12/17 15:43:25;;;;;;;119.13;54.63;;;-0.90;99.90;;;;;;5010605;28;38373;-77
2022/12/17 15:45:52;;;;;;;110.80;54.27;;;-1.00;99.90;;;;;;5016725;28;37494;-76
2022/12/17 15:48:24;;;;;;;111.10;54.20;;;-1.00;99.90;;;;;;5005036;28;36368;-77
2022/12/17 15:50:50;;;;;;;;;;;-1.10;99.90;;;;;;5013453;28;39761;-77
2022/12/17 15:53:16;;;;;;;116.60;52.17;;;-1.10;99.90;;;;;;5016900;28;37508;-77
2022/12/17 15:55:43;;;;;;;128.43;58.17;;;-1.20;99.90;;;;;;5014812;28;37089;-76
2022/12/17 15:58:10;;;;;;;141.20;58.97;;;-1.20;99.90;;;;;;5018990;28;37528;-75
2022/12/17 16:00:36;;;;;;;120.47;55.17;;;-1.30;99.90;;;;;;5023224;28;38310;-76
2022/12/17 16:03:03;;;;;;;128.50;56.37;;;-1.40;99.90;;;;;;5017956;28;37015;-76
2022/12/17 16:05:29;;;;;;;134.07;56.60;;;-1.40;99.90;;;;;;5020546;28;38049;-75
2022/12/17 16:07:57;;;;;;;118.00;52.53;;;-1.40;99.90;;;;;;5017320;28;37318;-76
2022/12/17 16:10:24;;;;;;;125.00;54.53;;;-1.50;99.90;;;;;;5011888;28;39843;-75
2022/12/17 16:12:50;;;;;;;142.37;60.10;;;-1.50;99.90;;;;;;5011584;28;36592;-76
2022/12/17 16:15:16;;;;;;;152.50;60.73;;;-1.60;99.90;;;;;;5017641;28;37305;-76
2022/12/17 16:17:43;;;;;;;145.50;58.40;;;-1.60;99.90;;;;;;5016065;28;36384;-78
2022/12/17 16:20:09;;;;;;;171.93;63.07;;;-1.60;99.90;;;;;;5014878;28;37446;-77
2022/12/17 16:22:36;;;;;;;156.03;60.53;;;-1.60;99.90;;;;;;5021658;28;37403;-75
2022/12/17 16:25:03;;;;;;;155.13;61.33;;;-1.60;99.90;;;;;;5022284;28;36902;-76
2022/12/17 16:27:29;;;;;;;163.63;61.83;;;-1.60;99.90;;;;;;5015374;28;47244;-76
2022/12/17 16:29:55;;;;;;;159.97;60.63;;;-1.60;99.90;;;;;;5021145;28;38403;-76
2022/12/17 16:32:22;;;;;;;151.93;59.93;;;-1.60;99.90;;;;;;5014435;28;37617;-76
2022/12/17 16:34:48;;;;;;;150.53;58.73;;;-1.60;99.90;;;;;;5017086;28;37059;-77
2022/12/17 16:37:14;;;;;;;146.73;56.37;;;-1.60;99.90;;;;;;5024467;28;37727;-77
2022/12/17 16:39:42;;;;;;;158.17;59.97;;;-1.60;99.90;;;;;;5024878;28;38987;-77
2022/12/17 16:42:10;;;;;;;132.40;53.33;;;-1.60;99.90;;;;;;5014870;28;37072;-75
2022/12/17 16:44:36;;;;;;;168.50;62.93;;;-1.70;99.90;;;;;;5014525;28;38587;-76
2022/12/17 16:47:02;;;;;;;143.53;56.23;;;-1.70;99.90;;;;;;5009075;28;37273;-75
2022/12/17 16:49:28;;;;;;;156.50;62.67;;;-1.70;99.90;;;;;;5016984;28;46917;-76
2022/12/17 16:51:55;;;;;;;170.40;62.50;;;-1.70;99.90;;;;;;5018277;28;40492;-76
2022/12/17 16:54:26;;;;;;;170.67;59.43;;;-1.60;99.90;;;;;;5015830;28;38520;-76
2022/12/17 16:56:52;;;;;;;194.23;64.77;;;-1.60;99.90;;;;;;5014872;28;41154;-76
2022/12/17 16:59:18;;;;;;;177.53;62.73;;;-1.70;99.90;;;;;;5014712;28;39590;-76
2022/12/17 17:01:47;;;;;;;188.50;65.90;;;-1.70;99.90;;;;;;5020212;28;37553;-76
2022/12/17 17:04:16;;;;;;;205.27;66.93;;;-1.70;99.90;;;;;;5018789;28;37335;-76
2022/12/17 17:06:46;;;;;;;202.20;70.17;;;-1.80;99.90;;;;;;5016128;28;36580;-77
2022/12/17 17:09:12;;;;;;;170.13;63.50;;;-1.80;99.90;;;;;;5012554;28;38613;-76
2022/12/17 17:11:39;;;;;;;201.47;69.67;;;-1.80;99.90;;;;;;5016197;28;37475;-75
2022/12/17 17:14:06;;;;;;;186.67;65.43;;;-1.80;99.90;;;;;;5011036;28;38189;-74
2022/12/17 17:16:37;;;;;;;218.67;75.07;;;-1.80;99.90;;;;;;5016961;28;36751;-78
2022/12/17 17:19:07;;;;;;;188.17;66.83;;;-1.80;99.90;;;;;;5019171;28;38810;-76
2022/12/17 17:21:37;;;;;;;177.00;62.20;;;-1.80;99.90;;;;;;5013269;28;38200;-75
2022/12/17 17:24:08;;;;;;;238.53;71.80;;;-1.90;99.90;;;;;;5014453;28;38314;-77
2022/12/17 17:26:35;;;;;;;223.33;66.93;;;-1.80;99.90;;;;;;5022032;28;36426;-76
2022/12/17 17:29:02;;;;;;;222.87;71.30;;;-1.80;99.90;;;;;;5018665;28;37392;-78
2022/12/17 17:31:28;;;;;;;202.57;67.00;;;-1.90;99.90;;;;;;5011190;28;37366;-75
2022/12/17 17:33:54;;;;;;;259.03;73.87;;;-1.80;99.90;;;;;;5021782;28;35983;-77
2022/12/17 17:36:29;;;;;;;235.47;70.37;;;-1.80;99.90;;;;;;5020702;28;37003;-76
2022/12/17 17:38:58;;;;;;;197.80;68.37;;;-1.80;99.90;;;;;;5012221;28;37541;-79
2022/12/17 17:41:26;;;;;;;211.23;67.10;;;-1.90;99.90;;;;;;5020389;28;38298;-78
2022/12/17 17:43:54;;;;;;;182.37;63.07;;;-1.90;99.90;;;;;;5023666;28;37702;-77
2022/12/17 17:46:21;;;;;;;184.50;62.03;;;-1.90;99.90;;;;;;5012463;28;36480;-78
2022/12/17 17:48:49;;;;;;;247.27;69.03;;;-1.90;99.90;;;;;;5035513;28;37413;-79
2022/12/17 17:51:18;;;;;;;234.17;69.30;;;-1.90;99.90;;;;;;5022170;28;37475;-78
2022/12/17 17:53:46;;;;;;;183.80;61.17;;;-1.90;99.90;;;;;;5021983;28;36959;-78
2022/12/17 17:56:17;;;;;;;232.80;70.37;;;-1.90;99.90;;;;;;5020552;28;36735;-78
2022/12/17 17:58:45;;;;;;;209.83;65.93;;;-1.90;99.90;;;;;;5026724;28;38631;-80
2022/12/17 18:01:14;;;;;;;205.63;65.53;;;-2.00;99.90;;;;;;5021368;28;39314;-79
2022/12/17 18:03:41;;;;;;;175.57;62.03;;;-2.00;99.90;;;;;;5024872;28;37406;-77
2022/12/17 18:06:09;;;;;;;239.90;67.40;;;-2.00;99.90;;;;;;5021479;28;36249;-78
2022/12/17 18:08:36;;;;;;;221.90;69.73;;;-2.00;99.90;;;;;;5024273;28;38624;-79
2022/12/17 18:11:06;;;;;;;213.40;68.70;;;-2.00;99.90;;;;;;5022359;28;38734;-79
2022/12/17 18:16:18;;;;;;;180.93;62.67;;;-2.00;99.90;;;;;;5020685;28;37831;-79
2022/12/17 18:18:44;;;;;;;237.60;70.07;;;-2.00;99.90;;;;;;5021966;28;40283;-79
2022/12/17 18:21:13;;;;;;;190.80;63.83;;;-2.00;99.90;;;;;;5020680;28;37306;-78
2022/12/17 18:23:39;;;;;;;247.50;69.60;;;-2.10;99.90;;;;;;5021982;28;39112;-79
2022/12/17 18:26:15;;;;;;;213.47;66.23;;;-2.10;99.90;;;;;;5024880;28;37090;-79
2022/12/17 18:28:42;;;;;;;213.80;65.87;;;-2.20;99.90;;;;;;5027143;28;38823;-78
2022/12/17 18:31:12;;;;;;;193.47;64.23;;;-2.20;99.90;;;;;;5025629;28;38328;-79
2022/12/17 18:33:40;;;;;;;218.57;67.87;;;-2.20;99.90;;;;;;5026482;28;38016;-79
2022/12/17 18:36:09;;;;;;;209.67;66.33;;;-2.10;99.90;;;;;;5026533;28;37479;-78
2022/12/17 18:38:35;;;;;;;209.63;66.33;;;-2.10;99.90;;;;;;5026691;28;37956;-79
2022/12/17 18:43:21;;;;;;;218.07;68.27;;;-2.10;99.90;;;;;;5023896;28;37656;-78
2022/12/17 18:43:52;;;;;;;197.80;60.53;;;-2.10;99.90;;;;;;5015014;28;48534;-77
2022/12/17 18:46:21;;;;;;;223.23;67.37;;;-2.10;99.90;;;;;;5010334;28;38665;-79
2022/12/17 18:48:50;;;;;;;208.60;63.80;;;-2.10;99.90;;;;;;5011279;28;38732;-78
2022/12/17 18:51:16;;;;;;;186.67;64.53;;;-2.10;99.90;;;;;;5018092;28;38631;-78
2022/12/17 18:53:42;;;;;;;187.10;63.40;;;-2.10;99.90;;;;;;5022286;28;39052;-78
2022/12/17 18:56:10;;;;;;;177.43;62.03;;;-2.20;99.90;;;;;;5025950;28;37748;-78
2022/12/17 18:58:36;;;;;;;171.07;61.53;;;-2.10;99.90;;;;;;5012011;28;39165;-79
2022/12/17 19:01:04;;;;;;;182.80;62.77;;;-2.10;99.90;;;;;;5013233;28;38498;-80
2022/12/17 19:03:31;;;;;;;185.47;62.43;;;-2.20;99.90;;;;;;5019445;28;47132;-78
2022/12/17 19:05:57;;;;;;;187.50;64.80;;;-2.20;99.90;;;;;;5018698;28;37833;-79
2022/12/17 19:08:23;;;;;;;207.73;68.10;;;-2.20;99.90;;;;;;5022603;28;38522;-77
2022/12/17 19:10:49;;;;;;;182.77;62.57;;;-2.20;99.90;;;;;;5019178;28;37327;-79
2022/12/17 19:13:15;;;;;;;154.60;58.33;;;-2.20;99.90;;;;;;5023232;28;38149;-78
2022/12/17 19:15:41;;;;;;;165.93;60.97;;;-2.20;99.90;;;;;;5013423;28;38047;-78
2022/12/17 19:18:07;;;;;;;184.70;61.10;;;-2.20;99.90;;;;;;5024145;28;38570;-78
2022/12/17 19:20:33;;;;;;;178.50;61.33;;;-2.20;99.90;;;;;;5025357;28;37712;-79
2022/12/17 19:22:59;;;;;;;192.37;61.20;;;-2.20;99.90;;;;;;5027741;28;38396;-79
2022/12/17 19:25:26;;;;;;;187.07;66.10;;;-2.20;99.90;;;;;;5024646;28;36774;-80
2022/12/17 19:27:52;;;;;;;164.10;59.43;;;-2.30;99.90;;;;;;5030994;28;38798;-78
2022/12/17 19:30:18;;;;;;;235.77;71.57;;;-2.30;99.90;;;;;;5028018;28;37234;-80
2022/12/17 19:32:44;;;;;;;203.43;65.47;;;-2.30;99.90;;;;;;5032186;28;37708;-79
2022/12/17 19:35:10;;;;;;;176.43;60.33;;;-2.30;99.90;;;;;;5029407;28;37609;-79
2022/12/17 19:37:36;;;;;;;179.57;60.53;;;-2.30;99.90;;;;;;5029023;28;37119;-78
2022/12/17 19:40:03;;;;;;;181.33;61.87;;;-2.40;99.90;;;;;;5027647;28;39035;-79
2022/12/17 19:42:29;;;;;;;184.73;62.27;;;-2.40;99.90;;;;;;5029366;28;38792;-79
2022/12/17 19:44:55;;;;;;;175.40;58.67;;;-2.40;99.90;;;;;;5033391;28;37898;-78
2022/12/17 19:47:22;;;;;;;179.30;63.20;;;-2.40;99.90;;;;;;5024391;28;38342;-80
2022/12/17 19:49:49;;;;;;;184.80;62.93;;;-2.40;99.90;;;;;;5023875;28;37128;-79
2022/12/17 19:52:15;;;;;;;185.43;64.73;;;-2.40;99.90;;;;;;5026131;28;37403;-79
2022/12/17 19:54:41;;;;;;;191.67;64.73;;;-2.40;99.90;;;;;;5028478;28;38555;-78
2022/12/17 19:57:07;;;;;;;182.07;66.97;;;-2.40;99.90;;;;;;5030314;28;40557;-78
2022/12/17 19:59:33;;;;;;;198.17;62.00;;;-2.30;99.90;;;;;;5027506;28;38773;-79
2022/12/17 20:02:02;;;;;;;175.50;60.93;;;-2.30;99.90;;;;;;5025703;28;38927;-77
2022/12/17 20:04:29;;;;;;;191.30;61.97;;;-2.30;99.90;;;;;;5026282;28;47267;-78
2022/12/17 20:06:55;;;;;;;204.77;66.33;;;-2.30;99.90;;;;;;5028091;28;38144;-78
2022/12/17 20:09:21;;;;;;;182.27;59.83;;;-2.40;99.90;;;;;;5027616;28;37390;-79
2022/12/17 20:11:47;;;;;;;173.23;59.83;;;-2.50;99.90;;;;;;5022585;28;38382;-79
2022/12/17 20:14:13;;;;;;;191.77;60.30;;;-2.50;99.90;;;;;;5027622;28;37523;-78
2022/12/17 20:16:42;;;;;;;147.23;54.33;;;-2.60;99.90;;;;;;5021026;28;37836;-77
2022/12/17 20:19:14;;;;;;;161.73;56.83;;;-2.50;99.90;;;;;;5028846;28;38310;-78
2022/12/17 20:21:40;;;;;;;169.43;56.60;;;-2.50;99.90;;;;;;5022160;28;37161;-80
2022/12/17 20:24:07;;;;;;;160.23;54.93;;;-2.60;99.90;;;;;;5024952;28;36603;-79
2022/12/17 20:26:35;;;;;;;153.80;53.50;;;-2.60;99.90;;;;;;5027749;28;37443;-78
2022/12/17 20:29:02;;;;;;;147.77;51.63;;;-2.70;99.90;;;;;;5025647;28;38510;-78
2022/12/17 20:31:29;;;;;;;190.57;57.30;;;-2.70;99.90;;;;;;5024736;28;37491;-77
2022/12/17 20:33:55;;;;;;;147.43;53.43;;;-2.70;99.90;;;;;;5027597;28;37508;-77
2022/12/17 20:36:22;;;;;;;167.37;55.60;;;-2.70;99.90;;;;;;5025689;28;38653;-78
2022/12/17 20:38:48;;;;;;;183.77;59.13;;;-2.60;99.90;;;;;;5027823;28;38270;-78
2022/12/17 20:41:20;;;;;;;164.90;56.80;;;-2.60;99.90;;;;;;5025717;28;37419;-78
2022/12/17 20:43:47;;;;;;;216.43;62.97;;;-2.50;99.90;;;;;;5024559;28;37114;-78
2022/12/17 20:46:14;;;;;;;201.77;59.77;;;-2.50;99.90;;;;;;5022397;28;38961;-77
2022/12/17 20:48:42;;;;;;;155.93;53.53;;;-2.50;99.90;;;;;;5021088;28;38414;-78
2022/12/17 20:51:11;;;;;;;153.70;54.40;;;-2.60;99.90;;;;;;5016234;28;37908;-78
2022/12/17 20:53:37;;;;;;;162.33;56.00;;;-2.60;99.90;;;;;;5018100;28;36488;-76
2022/12/17 20:56:10;;;;;;;171.60;56.57;;;-2.70;99.90;;;;;;5023583;28;38530;-76
2022/12/17 20:58:37;;;;;;;166.38;54.17;;;-2.70;99.90;;;;;;5024670;28;47241;-79
2022/12/17 21:01:19;;;;;;;161.33;55.33;;;-2.70;99.90;;;;;;5024965;28;39261;-77
2022/12/17 21:03:48;;;;;;;162.77;56.07;;;-2.70;99.90;;;;;;5012702;28;47357;-78
2022/12/17 21:06:22;;;;;;;179.13;57.47;;;-2.60;99.90;;;;;;5016481;28;38473;-77
2022/12/17 21:08:50;;;;;;;189.20;61.40;;;-2.60;99.90;;;;;;5026899;28;37144;-79
2022/12/17 21:11:18;;;;;;;156.50;54.87;;;-2.60;99.90;;;;;;5022816;28;39133;-76
2022/12/17 21:13:44;;;;;;;165.63;55.73;;;-2.60;99.90;;;;;;5021200;28;37378;-78
2022/12/17 21:16:13;;;;;;;170.47;57.63;;;-2.60;99.90;;;;;;5023829;28;37178;-78
2022/12/17 21:18:40;;;;;;;157.37;55.97;;;-2.60;99.90;;;;;;5024508;28;39344;-78
2022/12/17 21:21:09;;;;;;;167.57;55.63;;;-2.70;99.90;;;;;;5016569;28;37350;-78
2022/12/17 21:23:36;;;;;;;159.17;56.10;;;-2.70;99.90;;;;;;5018379;28;36383;-78
2022/12/17 21:26:30;;;;;;;147.80;54.13;;;-2.70;99.90;;;;;;5028623;28;39217;-77
2022/12/17 21:28:57;;;;;;;165.00;56.23;;;-2.70;99.90;;;;;;5019706;28;48861;-78
2022/12/17 21:31:27;;;;;;;178.77;58.30;;;-2.60;99.90;;;;;;5018799;28;38281;-77
2022/12/17 21:33:56;;;;;;;153.17;53.47;;;-2.60;99.90;;;;;;5010615;28;37671;-77
2022/12/17 21:36:22;;;;;;;168.67;53.97;;;-2.60;99.90;;;;;;5020787;28;38943;-77
2022/12/17 21:38:50;;;;;;;142.37;54.03;;;-2.70;99.90;;;;;;5025086;28;38408;-77
2022/12/17 21:41:20;;;;;;;177.47;56.13;;;-2.60;99.90;;;;;;5025103;28;37461;-78
2022/12/17 21:43:46;;;;;;;149.40;51.77;;;-2.60;99.90;;;;;;5021673;28;37293;-78
2022/12/17 21:46:13;;;;;;;143.30;51.30;;;-2.60;99.90;;;;;;5027128;28;38401;-77
2022/12/17 21:48:40;;;;;;;146.57;52.13;;;-2.60;99.90;;;;;;5024015;28;39046;-78
2022/12/17 21:51:08;;;;;;;166.23;53.00;;;-2.60;99.90;;;;;;5023085;28;37295;-77
2022/12/17 21:53:37;;;;;;;156.27;54.80;;;-2.70;99.90;;;;;;5023137;28;37437;-78
2022/12/17 21:56:06;;;;;;;148.00;52.77;;;-2.70;99.90;;;;;;5021806;28;38908;-78
2022/12/17 21:58:33;;;;;;;147.73;52.30;;;-2.70;99.90;;;;;;5027335;28;47544;-76
2022/12/17 22:01:08;;;;;;;151.83;53.93;;;-2.70;99.90;;;;;;5018380;28;37663;-78
2022/12/17 22:03:34;;;;;;;162.23;52.60;;;-2.80;99.90;;;;;;5018937;28;48041;-77
2022/12/17 22:06:06;;;;;;;140.90;51.87;;;-2.80;99.90;;;;;;5022822;28;38584;-77
2022/12/17 22:08:32;;;;;;;136.60;50.20;;;-2.80;99.90;;;;;;5006714;28;48753;-78
2022/12/17 22:10:58;;;;;;;137.63;50.13;;;-2.80;99.90;;;;;;5006074;28;39912;-77
2022/12/17 22:16:09;;;;;;;156.73;52.97;;;-2.80;99.90;;;;;;5017635;28;39393;-78
2022/12/17 22:18:35;;;;;;;152.40;50.23;;;-2.80;99.90;;;;;;5023530;28;40055;-78
2022/12/17 22:21:02;;;;;;;144.27;49.23;;;-2.80;99.90;;;;;;5024403;28;37110;-79
2022/12/17 22:23:31;;;;;;;156.83;48.73;;;-2.80;99.90;;;;;;4990397;28;37344;-79
2022/12/17 22:25:57;;;;;;;142.63;48.87;;;-2.80;99.90;;;;;;5015350;28;39588;-78
2022/12/17 22:28:23;;;;;;;144.77;50.87;;;-2.80;99.90;;;;;;5019927;28;41929;-79
2022/12/17 22:33:34;;;;;;;128.43;47.07;;;-2.80;99.90;;;;;;5020749;28;49594;-79
2022/12/17 22:36:01;;;;;;;145.63;47.87;;;-2.80;99.90;;;;;;5020560;28;39552;-78
2022/12/17 22:38:27;;;;;;;132.90;52.33;;;-2.80;99.90;;;;;;5022251;28;39847;-79
2022/12/17 22:40:54;;;;;;;157.97;50.87;;;-2.80;99.90;;;;;;5016328;28;37025;-79
2022/12/17 22:43:29;;;;;;;146.77;50.70;;;-2.80;99.90;;;;;;5022761;28;41334;-79
2022/12/17 22:46:00;;;;;;;139.30;48.77;;;-2.80;99.90;;;;;;5022870;28;37803;-78
2022/12/17 22:48:27;;;;;;;162.80;50.93;;;-2.80;99.90;;;;;;5020670;28;39052;-79
2022/12/17 22:50:54;;;;;;;155.83;50.00;;;-2.90;99.90;;;;;;5027661;28;37242;-80
2022/12/17 22:53:20;;;;;;;167.57;49.77;;;-2.90;99.90;;;;;;5020713;28;36117;-78
2022/12/17 22:55:47;;;;;;;153.77;47.93;;;-2.90;99.90;;;;;;5026818;28;39310;-78
2022/12/17 22:58:13;;;;;;;168.80;50.20;;;-2.90;99.90;;;;;;5023830;28;38271;-77
2022/12/17 23:00:39;;;;;;;158.77;49.77;;;-2.90;99.90;;;;;;5021495;28;36667;-76
2022/12/17 23:03:05;;;;;;;138.40;47.17;;;-2.90;99.90;;;;;;5022870;28;37821;-77
2022/12/17 23:05:32;;;;;;;133.40;45.47;;;-2.90;99.90;;;;;;5022479;28;38833;-77
2022/12/17 23:07:58;;;;;;;129.60;44.20;;;-2.90;99.90;;;;;;5021373;28;38875;-77
2022/12/17 23:10:26;;;;;;;147.87;47.50;;;-2.90;99.90;;;;;;5020571;28;38356;-77
2022/12/17 23:12:53;;;;;;;146.80;48.20;;;-2.90;99.90;;;;;;5022429;28;37496;-78
2022/12/17 23:15:35;;;;;;;145.00;47.83;;;-2.90;99.90;;;;;;5025596;28;39620;-77
2022/12/17 23:18:03;;;;;;;126.03;42.43;;;-2.90;99.90;;;;;;5013048;28;39301;-77
2022/12/17 23:20:31;;;;;;;134.00;44.23;;;-2.90;99.90;;;;;;5017987;28;47381;-77
2022/12/17 23:22:57;;;;;;;130.50;43.97;;;-2.90;99.90;;;;;;5018576;28;37936;-76
2022/12/17 23:25:25;;;;;;;141.67;46.07;;;-2.90;99.90;;;;;;5021694;28;38251;-76
2022/12/17 23:27:52;;;;;;;136.93;44.87;;;-2.90;99.90;;;;;;5015394;28;37155;-76
2022/12/17 23:30:19;;;;;;;135.10;44.00;;;-3.00;99.90;;;;;;5021388;28;36952;-77
2022/12/17 23:32:45;;;;;;;142.53;46.50;;;-3.00;99.90;;;;;;5024344;28;37510;-77
2022/12/17 23:35:12;;;;;;;177.43;49.27;;;-3.00;99.90;;;;;;5015405;28;38903;-77
2022/12/17 23:37:39;;;;;;;149.33;43.93;;;-3.10;99.90;;;;;;5020143;28;39542;-78
2022/12/17 23:40:10;;;;;;;160.47;48.13;;;-3.10;99.90;;;;;;5017263;28;37586;-77
2022/12/17 23:42:37;;;;;;;152.97;45.80;;;-3.10;99.90;;;;;;5023105;28;38909;-77
2022/12/17 23:45:05;;;;;;;110.70;40.63;;;-3.10;99.90;;;;;;5024038;28;37891;-78
2022/12/17 23:47:31;;;;;;;153.93;47.80;;;-3.00;99.90;;;;;;5020506;28;47712;-77
2022/12/17 23:49:57;;;;;;;184.03;50.10;;;-3.00;99.90;;;;;;5026875;28;38048;-77
2022/12/17 23:52:24;;;;;;;145.20;47.57;;;-3.00;99.90;;;;;;5027147;28;36529;-77
2022/12/17 23:54:50;;;;;;;136.77;45.10;;;-2.90;99.90;;;;;;5022946;28;39674;-76
2022/12/17 23:57:16;;;;;;;148.27;47.20;;;-2.90;99.90;;;;;;5027307;28;38589;-77
2022/12/17 23:59:42;;;;;;;141.00;46.73;;;-2.90;99.90;;;;;;5011654;28;37793;-77
